Date,TemperatureHighF,TemperatureAvgF,TemperatureLowF,DewpointHighF,DewpointAvgF,DewpointLowF,HumidityHigh,HumidityAvg,HumidityLow,PressureMaxIn,PressureMinIn,WindSpeedMaxMPH,WindSpeedAvgMPH,GustSpeedMaxMPH,PrecipitationSumIn
2013-2-1,27,23,20,25,21,17,92,90,89,0.00,40.00,6,4,10,0.04
2013-2-2,35,26,20,25,20,16,89,79,55,0.00,40.00,11,6,15,0.06
2013-2-3,35,29,26,19,14,10,69,54,45,0.00,40.00,15,11,22,0.01
2013-2-4,30,25,24,25,19,13,89,77,58,0.00,40.00,16,9,22,0.03
2013-2-5,39,28,22,24,21,14,93,76,48,0.00,40.00,17,11,33,0.01
2013-2-6,26,21,19,21,17,13,90,83,69,0.00,40.00,16,9,22,0.02
2013-2-7,27,22,18,14,11,10,82,65,52,0.00,40.00,18,13,27,0.01
2013-2-8,24,20,18,18,16,12,91,82,66,0.00,40.00,18,9,23,0.00
2013-2-9,20,16,14,16,12,10,90,84,75,0.00,40.00,16,10,26,0.00
2013-2-10,20,15,12,16,11,8,86,84,81,0.00,40.00,10,5,19,0.00
2013-2-11,22,15,11,17,11,7,87,84,78,0.00,40.00,14,9,22,0.00
2013-2-12,23,20,17,20,17,14,90,88,86,0.00,40.00,14,8,27,0.00
2013-2-13,27,24,20,23,20,14,91,86,77,0.00,40.00,24,14,47,0.02
2013-2-14,23,20,18,17,15,13,89,82,72,0.00,40.00,18,14,30,0.01
2013-2-15,36,26,20,24,20,17,89,78,59,0.00,40.00,14,9,25,0.01
2013-2-16,43,31,21,24,19,14,90,60,46,0.00,40.00,24,11,51,0.01
2013-2-17,22,18,14,18,15,10,89,86,84,0.00,40.00,16,9,35,0.00
2013-2-18,23,17,13,16,10,6,85,75,57,0.00,40.00,20,10,29,0.00
2013-2-19,28,21,16,19,10,4,90,66,43,0.00,40.00,19,11,29,0.00
2013-2-20,22,17,12,17,13,8,88,84,82,0.00,40.00,17,10,24,0.01
2013-2-21,19,14,8,12,7,3,86,75,56,0.00,40.00,12,9,18,0.01
2013-2-22,23,18,14,20,14,10,90,84,73,0.00,40.00,19,10,31,0.01
2013-2-23,22,15,12,19,11,8,89,84,81,0.00,40.00,13,9,27,0.00
2013-2-24,23,16,11,15,10,7,83,77,63,0.00,40.00,12,8,22,0.00
2013-2-25,23,17,14,18,11,6,86,77,63,0.00,40.00,17,11,26,0.00
2013-2-26,23,15,12,18,10,6,85,80,69,0.00,40.00,12,8,19,0.01
2013-2-27,31,21,13,11,7,4,79,57,36,0.00,40.00,15,10,34,0.01
2013-2-28,27,23,18,25,18,6,93,80,51,0.00,40.00,12,9,18,0.01